Allagash, Maine
Current Conditions -  °F | °C
As of 11:53 AM on Thursday 30 Oct 2014 (Local Time) from KFVE Reporting Station
Broken Clouds Broken Clouds  
Wind Chill:   Ceiling: 3700
Heat Index:   Visibility: 10mi
Dew Point: -1°   Wind: 13mph
Humidity: 56%   Direction: 300°WNW
Pressure: 29.8"   Gusts: NA
Location:  47.1951°N, 69.2728°W
Report Text: KFVE 301553Z AUTO 30011KT 10SM BKN037 BKN046 07/M01 A2980 RMK AO2 SLP095 T00721011
Loading
Personal Weather Stations






























Interactive Weather Map
Tropical Storm Tracking
New forecast layout! Learn more

10-Day Weather Forecast

Advertisements
Track Severe Weather on mobile